地図

経路データ

SID SEASON NUMBER BASIN SUBBASIN NAME ISO_TIME NATURE LAT LON WMO_WIND WMO_PRES WMO_AGENCY TRACK_TYPE DIST2LAND LANDFALL IFLAG USA_AGENCY USA_ATCF_ID USA_LAT USA_LON USA_RECORD USA_STATUS USA_WIND USA_PRES USA_SSHS USA_R34_NE USA_R34_SE USA_R34_SW USA_R34_NW USA_R50_NE USA_R50_SE USA_R50_SW USA_R50_NW USA_R64_NE USA_R64_SE USA_R64_SW USA_R64_NW USA_POCI USA_ROCI USA_RMW USA_EYE TOKYO_LAT TOKYO_LON TOKYO_GRADE TOKYO_WIND TOKYO_PRES TOKYO_R50_DIR TOKYO_R50_LONG TOKYO_R50_SHORT TOKYO_R30_DIR TOKYO_R30_LONG TOKYO_R30_SHORT TOKYO_LAND CMA_LAT CMA_LON CMA_CAT CMA_WIND CMA_PRES HKO_LAT HKO_LON HKO_CAT HKO_WIND HKO_PRES NEWDELHI_LAT NEWDELHI_LON NEWDELHI_GRADE NEWDELHI_WIND NEWDELHI_PRES NEWDELHI_CI NEWDELHI_DP NEWDELHI_POCI REUNION_LAT REUNION_LON REUNION_TYPE REUNION_WIND REUNION_PRES REUNION_TNUM REUNION_CI REUNION_RMW REUNION_R34_NE REUNION_R34_SE REUNION_R34_SW REUNION_R34_NW REUNION_R50_NE REUNION_R50_SE REUNION_R50_SW REUNION_R50_NW REUNION_R64_NE REUNION_R64_SE REUNION_R64_SW REUNION_R64_NW BOM_LAT BOM_LON BOM_TYPE BOM_WIND BOM_PRES BOM_TNUM BOM_CI BOM_RMW BOM_R34_NE BOM_R34_SE BOM_R34_SW BOM_R34_NW BOM_R50_NE BOM_R50_SE BOM_R50_SW BOM_R50_NW BOM_R64_NE BOM_R64_SE BOM_R64_SW BOM_R64_NW BOM_ROCI BOM_POCI BOM_EYE BOM_POS_METHOD BOM_PRES_METHOD NADI_LAT NADI_LON NADI_CAT NADI_WIND NADI_PRES WELLINGTON_LAT WELLINGTON_LON WELLINGTON_WIND WELLINGTON_PRES DS824_LAT DS824_LON DS824_STAGE DS824_WIND DS824_PRES TD9636_LAT TD9636_LON TD9636_STAGE TD9636_WIND TD9636_PRES TD9635_LAT TD9635_LON TD9635_WIND TD9635_PRES TD9635_ROCI NEUMANN_LAT NEUMANN_LON NEUMANN_CLASS NEUMANN_WIND NEUMANN_PRES MLC_LAT MLC_LON MLC_CLASS MLC_WIND MLC_PRES USA_GUST BOM_GUST BOM_GUST_PER REUNION_GUST REUNION_GUST_PER USA_SEAHGT USA_SEARAD_NE USA_SEARAD_SE USA_SEARAD_SW USA_SEARAD_NW STORM_SPEED STORM_DIR
1891305S18069 1892 54 SI MM NOT_NAMED 1891-10-31 18:00:00 NR -17.5000 69.4000 main 1259 1236 __________O___ -1 -17.5000 69.4000 7 4 246
1891305S18069 1892 54 SI MM NOT_NAMED 1891-10-31 21:00:00 NR -17.5907 69.1892 main 1236 1212 __________P___ -1 -17.5907 69.1892 7 4 246
1891305S18069 1892 54 SI MM NOT_NAMED 1891-11-01 00:00:00 NR -17.6851 68.9726 main 1212 1189 __________P___ -1 -17.6851 68.9726 7 5 245
1891305S18069 1892 54 SI MM NOT_NAMED 1891-11-01 03:00:00 NR -17.7869 68.7447 main 1179 1155 __________P___ -1 -17.7869 68.7447 7 5 244
1891305S18069 1892 54 SI MM NOT_NAMED 1891-11-01 06:00:00 NR -17.9000 68.5000 main 1155 1132 __________O___ -1 -17.9000 68.5000 7 5 244
1891305S18069 1892 54 SI MM NOT_NAMED 1891-11-01 09:00:00 NR -18.0275 68.2353 main 1122 1096 __________P___ -1 -18.0275 68.2353 7 6 242
1891305S18069 1892 54 SI MM NOT_NAMED 1891-11-01 12:00:00 NR -18.1700 67.9574 main 1096 1062 __________P___ -1 -18.1700 67.9574 7 6 240
1891305S18069 1892 54 SI MM NOT_NAMED 1891-11-01 15:00:00 NR -18.3275 67.6758 main 1062 1026 __________P___ -1 -18.3275 67.6758 7 6 238
1891305S18069 1892 54 SI MM NOT_NAMED 1891-11-01 18:00:00 NR -18.5000 67.4000 main 1026 1001 __________O___ -1 -18.5000 67.4000 7 6 236
1891305S18069 1892 54 SI MM NOT_NAMED 1891-11-01 21:00:00 NR -18.6774 67.1386 main 990 965 __________P___ -1 -18.6774 67.1386 7 6 233
1891305S18069 1892 54 SI MM NOT_NAMED 1891-11-02 00:00:00 NR -18.8699 66.8848 main 965 941 __________P___ -1 -18.8699 66.8848 7 6 230
1891305S18069 1892 54 SI MM NOT_NAMED 1891-11-02 03:00:00 NR -19.0774 66.6386 main 930 906 __________P___ -1 -19.0774 66.6386 7 6 227
1891305S18069 1892 54 SI MM NOT_NAMED 1891-11-02 06:00:00 NR -19.3000 66.4000 main 906 882 __________O___ -1 -19.3000 66.4000 7 6 225
1891305S18069 1892 54 SI MM NOT_NAMED 1891-11-02 09:00:00 NR -19.5356 66.1556 main 882 847 __________P___ -1 -19.5356 66.1556 7 7 223
1891305S18069 1892 54 SI MM NOT_NAMED 1891-11-02 12:00:00 NR -19.7850 65.9200 main 847 825 __________P___ -1 -19.7850 65.9200 7 7 220
1891305S18069 1892 54 SI MM NOT_NAMED 1891-11-02 15:00:00 NR -20.0419 65.6994 main 825 802 __________P___ -1 -20.0419 65.6994 7 7 217
1891305S18069 1892 54 SI MM NOT_NAMED 1891-11-02 18:00:00 NR -20.3000 65.5000 main 802 781 __________O___ -1 -20.3000 65.5000 7 6 214
1891305S18069 1892 54 SI MM NOT_NAMED 1891-11-02 21:00:00 NR -20.5544 65.3260 main 781 771 __________P___ -1 -20.5544 65.3260 7 6 211
1891305S18069 1892 54 SI MM NOT_NAMED 1891-11-03 00:00:00 NR -20.8050 65.1727 main 772 753 __________P___ -1 -20.8050 65.1727 7 6 209
1891305S18069 1892 54 SI MM NOT_NAMED 1891-11-03 03:00:00 NR -21.0532 65.0330 main 754 744 __________P___ -1 -21.0532 65.0330 7 6 207
1891305S18069 1892 54 SI MM NOT_NAMED 1891-11-03 06:00:00 NR -21.3000 64.9000 main 746 __________O___ -1 -21.3000 64.9000 7 6 207

IBTrACS Databaseについて

本データベースは、米国NOAAが公開する1842年以降の世界の熱帯低気圧のベストトラックデータアーカイブInternational Best Track Archive for Climate Stewardship (IBTrACS)を、ウェブで閲覧しやすい形式に変換したものです。

最終更新日:2021-10-21